createdAt,value
2018-07-14T00:08:36.454Z,69.14
2018-07-14T00:11:06.135Z,69.21
2018-07-14T00:13:35.132Z,69.43
2018-07-14T00:16:05.455Z,69.20
2018-07-14T00:27:43.283Z,69.32
2018-07-14T00:30:12.156Z,69.22
2018-07-14T00:32:41.105Z,69.40
2018-07-14T00:44:17.469Z,69.71
2018-07-14T00:46:46.315Z,69.74
2018-07-14T00:49:15.305Z,69.60
2018-07-14T01:00:51.919Z,69.67
2018-07-14T01:03:20.847Z,69.85
2018-07-14T01:05:49.835Z,69.82
2018-07-14T01:17:33.466Z,69.69
2018-07-14T01:20:02.519Z,69.99
2018-07-14T01:22:31.659Z,69.61
2018-07-14T01:25:01.811Z,69.76
2018-07-14T01:36:39.520Z,69.97
2018-07-14T01:39:09.136Z,69.92
2018-07-14T01:41:38.214Z,70.33
2018-07-14T01:53:16.087Z,70.34
2018-07-14T01:55:45.083Z,70.29
2018-07-14T01:58:14.246Z,70.31
2018-07-14T02:09:52.598Z,70.30
2018-07-14T02:12:21.590Z,70.29
2018-07-14T02:14:50.556Z,70.37
2018-07-14T02:17:19.778Z,70.41
2018-07-14T02:28:59.574Z,70.82
2018-07-14T02:31:29.043Z,70.83
2018-07-14T02:33:58.898Z,70.67
2018-07-14T02:45:35.959Z,70.97
2018-07-14T02:48:04.913Z,71.13
2018-07-14T02:50:33.914Z,71.01
2018-07-14T03:02:10.920Z,71.09
2018-07-14T03:04:39.883Z,71.07
2018-07-14T03:07:08.906Z,71.05
2018-07-14T03:18:45.747Z,71.41
2018-07-14T03:21:14.752Z,71.47
2018-07-14T03:23:43.768Z,71.62
2018-07-14T03:26:21.137Z,71.48
2018-07-14T03:37:56.285Z,71.44
2018-07-14T03:40:25.294Z,71.26
2018-07-14T03:42:54.319Z,71.50
2018-07-14T03:54:31.593Z,71.83
2018-07-14T03:57:00.691Z,71.79
2018-07-14T03:59:29.522Z,72.03
2018-07-14T04:11:06.960Z,71.74
2018-07-14T04:13:37.098Z,71.87
2018-07-14T04:16:06.222Z,71.85
2018-07-14T04:27:43.014Z,72.11
2018-07-14T04:30:12.018Z,72.14
2018-07-14T04:32:41.011Z,72.23
2018-07-14T04:44:22.257Z,72.15
2018-07-14T04:46:51.285Z,72.06
2018-07-14T04:49:20.247Z,72.15
2018-07-14T04:51:49.303Z,72.22
2018-07-14T05:03:27.294Z,72.55
2018-07-14T05:05:56.157Z,72.48
2018-07-14T05:08:25.219Z,72.37
2018-07-14T05:20:02.886Z,73.19
2018-07-14T05:22:31.818Z,73.09
2018-07-14T05:25:00.983Z,73.11
2018-07-14T05:36:37.809Z,73.07
2018-07-14T05:39:06.896Z,73.06
2018-07-14T05:41:35.802Z,72.99
2018-07-14T05:53:13.115Z,72.96
2018-07-14T05:55:42.147Z,73.18
2018-07-14T05:58:11.050Z,73.16
2018-07-14T06:00:42.631Z,73.20
2018-07-14T06:12:16.118Z,73.37
2018-07-14T06:14:45.139Z,73.26
2018-07-14T06:17:14.606Z,73.22
2018-07-14T06:28:51.739Z,73.55
2018-07-14T06:31:20.802Z,73.52
2018-07-14T06:33:49.731Z,73.73
2018-07-14T06:45:26.124Z,74.07
2018-07-14T06:47:55.206Z,74.17
2018-07-14T06:50:24.285Z,74.33
2018-07-14T07:02:01.819Z,74.44
2018-07-14T07:04:30.726Z,74.35
2018-07-14T07:06:59.800Z,74.67
2018-07-14T07:18:37.212Z,75.08
2018-07-14T07:21:06.178Z,75.22
2018-07-14T07:23:35.203Z,75.06
2018-07-14T07:26:04.533Z,75.48
2018-07-14T07:37:42.326Z,75.64
2018-07-14T07:40:11.284Z,75.55
2018-07-14T07:42:40.214Z,75.28
2018-07-14T07:54:17.427Z,75.21
2018-07-14T07:56:46.511Z,75.06
2018-07-14T07:59:15.778Z,75.16
2018-07-14T08:10:54.011Z,74.29
2018-07-14T08:13:22.934Z,73.97
2018-07-14T08:15:52.025Z,73.58
2018-07-14T08:27:29.827Z,72.71
2018-07-14T08:29:58.709Z,72.22
2018-07-14T08:32:27.809Z,71.91
2018-07-14T08:44:04.847Z,70.76
2018-07-14T08:46:33.921Z,70.51
2018-07-14T08:49:03.065Z,70.36
2018-07-14T08:51:32.395Z,70.14
2018-07-14T09:03:10.339Z,67.07
2018-07-14T09:05:39.575Z,66.23
2018-07-14T09:08:09.098Z,64.52
2018-07-14T09:19:45.487Z,63.47
2018-07-14T09:22:25.012Z,63.62
2018-07-14T09:24:57.161Z,62.62
2018-07-14T09:36:35.858Z,62.29
2018-07-14T09:39:06.004Z,61.99
2018-07-14T09:41:35.175Z,61.87
2018-07-14T09:53:24.048Z,61.45
2018-07-14T09:55:52.919Z,61.03
2018-07-14T09:58:21.988Z,60.81
2018-07-14T10:10:02.477Z,60.27
2018-07-14T10:12:32.481Z,60.26
2018-07-14T10:15:02.549Z,60.37
2018-07-14T10:29:58.311Z,60.09
2018-07-14T10:32:29.600Z,60.33
2018-07-14T10:34:58.717Z,61.17
2018-07-14T10:40:34.996Z,61.06
2018-07-14T10:43:06.010Z,61.21
2018-07-14T10:45:34.822Z,59.67
2018-07-14T10:48:03.675Z,60.32
2018-07-14T10:50:32.534Z,60.11
2018-07-14T10:53:02.512Z,59.84
2018-07-14T10:55:35.699Z,60.11
2018-07-14T10:58:06.689Z,60.08
2018-07-14T11:00:39.061Z,59.38
2018-07-14T11:03:07.881Z,58.69
2018-07-14T11:05:36.653Z,58.45
2018-07-14T11:08:05.475Z,58.45
2018-07-14T11:10:34.396Z,58.26
2018-07-14T11:13:07.818Z,58.51
2018-07-14T11:15:39.031Z,59.10
2018-07-14T11:18:14.606Z,58.30
2018-07-14T11:20:43.455Z,58.24
2018-07-14T11:23:12.250Z,58.66
2018-07-14T11:25:41.100Z,58.05
2018-07-14T11:28:10.207Z,57.44
2018-07-14T11:30:43.657Z,57.61
2018-07-14T11:33:14.821Z,57.60
2018-07-14T11:35:47.109Z,58.15
2018-07-14T11:38:16.006Z,58.04
2018-07-14T11:40:44.813Z,57.99
2018-07-14T11:43:13.618Z,58.18
2018-07-14T11:45:42.836Z,57.85
2018-07-14T11:48:15.044Z,57.31
2018-07-14T11:50:46.642Z,57.22
2018-07-14T11:53:17.608Z,57.60
2018-07-14T11:55:46.466Z,57.90
2018-07-14T11:58:15.342Z,57.47
2018-07-14T12:00:44.143Z,57.43
2018-07-14T12:03:13.895Z,56.97
2018-07-14T12:05:47.227Z,56.60
2018-07-14T12:08:19.773Z,56.79
2018-07-14T12:10:50.192Z,56.34
2018-07-14T12:13:19.079Z,55.69
2018-07-14T12:15:47.800Z,55.69
2018-07-14T12:18:16.775Z,56.04
2018-07-14T12:20:47.312Z,55.37
2018-07-14T12:23:26.480Z,55.98
2018-07-14T12:25:58.652Z,55.20
2018-07-14T12:28:30.518Z,55.46
2018-07-14T12:30:59.391Z,55.26
2018-07-14T12:33:28.347Z,55.88
2018-07-14T12:35:57.239Z,55.31
2018-07-14T12:38:30.077Z,55.47
2018-07-14T12:41:02.654Z,55.39
2018-07-14T12:43:34.606Z,54.85
2018-07-14T12:46:07.953Z,54.76
2018-07-14T12:48:38.012Z,54.64
2018-07-14T12:51:06.988Z,53.80
2018-07-14T12:53:35.870Z,54.08
2018-07-14T12:56:22.822Z,52.99
2018-07-14T13:05:49.137Z,52.74
2018-07-14T13:08:18.079Z,52.77
2018-07-14T13:10:47.983Z,52.73
2018-07-14T13:22:15.485Z,53.72
2018-07-14T13:24:44.441Z,53.73
2018-07-14T13:27:13.395Z,52.88
2018-07-14T13:41:26.334Z,53.70
2018-07-14T13:43:55.203Z,54.31
2018-07-14T13:46:24.303Z,54.41
2018-07-14T13:55:19.075Z,54.53
2018-07-14T13:57:49.140Z,53.47
2018-07-14T14:00:18.004Z,53.34
2018-07-14T14:02:46.834Z,52.98
2018-07-14T14:05:19.351Z,52.07
2018-07-14T14:07:54.407Z,51.40
2018-07-14T14:13:13.654Z,50.66
2018-07-14T14:15:44.321Z,50.32
2018-07-14T14:18:13.762Z,51.17
2018-07-14T14:20:42.604Z,50.55
2018-07-14T14:23:14.135Z,50.89
2018-07-14T14:25:46.841Z,51.08
2018-07-14T14:28:21.807Z,50.42
2018-07-14T14:30:55.262Z,49.96
2018-07-14T14:33:25.026Z,51.14
2018-07-14T14:35:53.908Z,50.90
2018-07-14T14:38:22.895Z,50.54
2018-07-14T14:41:46.624Z,50.47
2018-07-14T14:50:04.957Z,50.28
2018-07-14T14:52:34.050Z,50.51
2018-07-14T14:55:03.068Z,49.87
2018-07-14T14:57:32.735Z,50.63
2018-07-14T15:08:48.575Z,48.60
2018-07-14T15:11:17.600Z,48.78
2018-07-14T15:13:46.626Z,48.31
2018-07-14T15:19:22.731Z,48.40
2018-07-14T15:25:11.863Z,49.36
2018-07-14T15:27:40.876Z,49.02
2018-07-14T15:30:10.066Z,50.11
2018-07-14T15:32:39.109Z,49.90
2018-07-14T15:44:11.044Z,49.27
2018-07-14T15:46:43.197Z,48.67
2018-07-14T15:49:35.767Z,49.47
2018-07-14T16:01:13.894Z,46.70
2018-07-14T16:03:42.764Z,46.80
2018-07-14T16:06:11.628Z,46.18
2018-07-14T16:08:40.882Z,45.46
2018-07-14T16:19:03.754Z,44.44
2018-07-14T16:21:32.492Z,43.86
2018-07-14T16:24:01.395Z,44.09
2018-07-14T16:35:28.939Z,44.30
2018-07-14T16:37:57.771Z,43.61
2018-07-14T16:40:26.740Z,43.04
2018-07-14T16:43:10.914Z,42.88
2018-07-14T16:54:48.724Z,41.42
2018-07-14T16:57:17.676Z,41.23
2018-07-14T16:59:46.706Z,41.27
2018-07-14T17:11:23.213Z,40.10
2018-07-14T17:13:52.230Z,39.93
2018-07-14T17:16:21.251Z,39.71
2018-07-14T17:28:02.058Z,38.57
2018-07-14T17:30:30.960Z,37.43
2018-07-14T17:32:59.851Z,37.13
2018-07-14T17:35:28.945Z,37.34
2018-07-14T17:47:07.227Z,38.63
2018-07-14T17:49:37.011Z,38.04
2018-07-14T17:52:06.071Z,38.20
2018-07-14T18:03:43.578Z,39.14
2018-07-14T18:06:12.576Z,39.74
2018-07-14T18:08:41.494Z,39.18
2018-07-14T18:20:18.332Z,39.05
2018-07-14T18:22:47.615Z,39.48
2018-07-14T18:25:16.515Z,39.95
2018-07-14T18:27:45.863Z,39.30
2018-07-14T18:39:24.166Z,40.29
2018-07-14T18:41:53.069Z,39.76
2018-07-14T18:44:22.022Z,40.02
2018-07-14T18:55:58.926Z,39.46
2018-07-14T18:58:27.795Z,39.93
2018-07-14T19:00:56.838Z,39.30
2018-07-14T19:12:34.682Z,43.32
2018-07-14T19:15:03.747Z,43.55
2018-07-14T19:17:32.618Z,45.41
2018-07-14T19:20:01.660Z,45.99
2018-07-14T19:31:39.399Z,49.55
2018-07-14T19:34:08.355Z,50.00
2018-07-14T19:36:37.486Z,50.36
2018-07-14T19:48:18.459Z,53.69
2018-07-14T19:50:47.386Z,54.45
2018-07-14T19:53:16.374Z,54.66
2018-07-14T19:55:45.615Z,54.56
2018-07-14T20:07:22.818Z,56.45
2018-07-14T20:09:51.793Z,57.77
2018-07-14T20:12:20.862Z,57.56
2018-07-14T20:23:58.598Z,59.28
2018-07-14T20:26:27.530Z,59.25
2018-07-14T20:28:56.574Z,59.56
2018-07-14T20:40:34.817Z,60.69
2018-07-14T20:43:03.762Z,60.73
2018-07-14T20:45:32.813Z,60.40
2018-07-14T20:59:43.839Z,61.49
2018-07-14T21:02:12.734Z,62.12
2018-07-14T21:04:41.747Z,61.71
2018-07-14T21:16:18.987Z,62.50
2018-07-14T21:18:47.879Z,62.10
2018-07-14T21:21:17.011Z,62.55
2018-07-14T21:32:54.493Z,63.12
2018-07-14T21:35:23.500Z,63.77
2018-07-14T21:37:52.502Z,63.46
2018-07-14T21:49:30.889Z,65.16
2018-07-14T21:51:59.742Z,65.55
2018-07-14T21:54:28.655Z,65.17
2018-07-14T21:56:59.238Z,64.98
2018-07-14T22:08:34.192Z,65.25
2018-07-14T22:11:03.250Z,65.11
2018-07-14T22:13:32.245Z,65.55
2018-07-14T22:25:09.907Z,65.93
2018-07-14T22:27:38.815Z,66.17
2018-07-14T22:30:07.786Z,66.41
2018-07-14T22:41:47.598Z,67.22
2018-07-14T22:44:16.978Z,67.35
2018-07-14T22:46:46.026Z,67.32
2018-07-14T22:58:37.215Z,67.54
2018-07-14T23:01:06.119Z,67.87
2018-07-14T23:03:34.964Z,67.76
2018-07-14T23:06:04.191Z,67.56
2018-07-14T23:17:31.558Z,67.92
2018-07-14T23:20:00.495Z,67.73
2018-07-14T23:22:29.351Z,67.74
2018-07-14T23:24:59.220Z,67.57
2018-07-14T23:27:31.104Z,67.50
2018-07-14T23:30:02.111Z,67.42
2018-07-14T23:32:33.687Z,67.44
2018-07-14T23:35:02.451Z,67.36
2018-07-14T23:37:31.221Z,67.27
2018-07-14T23:40:00.057Z,67.28
2018-07-14T23:42:29.006Z,67.46
2018-07-14T23:44:58.711Z,67.27
2018-07-14T23:47:31.805Z,67.25
2018-07-14T23:50:03.570Z,67.32
2018-07-14T23:52:32.358Z,67.39
2018-07-14T23:55:01.163Z,67.55
2018-07-14T23:57:29.915Z,67.43
2018-07-14T23:59:58.853Z,67.40
